| time (UTC) | temp F | wind direction | speed knots | gust knots | rain 1hr in | rain 24hr in | rain mn in | humidity % | barometer mb |
| 20260506191657 | 65 | 0.0 | 0.0 | 0.00 | 0.00 | 0.00 | 62 | 1002.0 | |
| 20260506190710 | 66 | 0.0 | 0.0 | 0.00 | 0.00 | 0.00 | 61 | 1002.0 | |
| 20260506185737 | 67 | 0.0 | 0.0 | 0.00 | 0.00 | 0.00 | 60 | 1002.0 | |
| 20260506184927 | 67 | 0.0 | 0.0 | 0.00 | 0.00 | 0.00 | 59 | 1002.0 | |
| 20260506183952 | 67 | 0.0 | 0.0 | 0.00 | 0.00 | 0.00 | 59 | 1002.0 | |
| 20260506183007 | 67 | 0.0 | 0.0 | 0.00 | 0.00 | 0.00 | 58 | 1002.0 | |
| 20260506182107 | 69 | 0.0 | 0.0 | 0.00 | 0.00 | 0.00 | 56 | 1002.0 | |
| 20260506181109 | 69 | 0.0 | 0.0 | 0.00 | 0.00 | 0.00 | 55 | 1002.0 | |
| 20260506180237 | 70 | 0.0 | 0.0 | 0.00 | 0.00 | 0.00 | 56 | 1002.0 | |
| 20260506175412 | 71 | 0.0 | 0.0 | 0.00 | 0.00 | 0.00 | 54 | 1002.0 | |
| 20260506174416 | 72 | 0.0 | 0.0 | 0.00 | 0.00 | 0.00 | 52 | 1001.0 | |
| 20260506173619 | 72 | 0.0 | 0.0 | 0.00 | 0.00 | 0.00 | 52 | 1001.0 | |
| 20260506172717 | 72 | 0.0 | 0.0 | 0.00 | 0.00 | 0.00 | 52 | 1001.0 | |
| 20260506171727 | 73 | 0.0 | 0.0 | 0.00 | 0.00 | 0.00 | 51 | 1001.0 | |
| 20260506170757 | 73 | 0.0 | 0.0 | 0.00 | 0.00 | 0.00 | 50 | 1001.0 | |
| 20260506165842 | 72 | 0.0 | 0.0 | 0.00 | 0.00 | 0.00 | 52 | 1001.0 | |
| 20260506165027 | 73 | 0.0 | 0.0 | 0.00 | 0.00 | 0.00 | 50 | 1001.0 | |
| 20260506164109 | 74 | 0.0 | 0.0 | 0.00 | 0.00 | 0.00 | 49 | 1001.0 | |
| 20260506163142 | 74 | 0.0 | 0.0 | 0.00 | 0.00 | 0.00 | 47 | 1001.0 | |
| 20260506162212 | 75 | 0.0 | 0.0 | 0.00 | 0.00 | 0.00 | 47 | 1002.0 | |
| 20260506161357 | 76 | 0.0 | 0.0 | 0.00 | 0.00 | 0.00 | 46 | 1001.0 | |
| 20260506160357 | 76 | 0.0 | 0.0 | 0.00 | 0.00 | 0.00 | 46 | 1002.0 | |
| 20260506155437 | 76 | 0.0 | 0.0 | 0.00 | 0.00 | 0.00 | 45 | 1002.0 | |
| 20260506154437 | 77 | 0.0 | 0.0 | 0.00 | 0.00 | 0.00 | 44 | 1002.0 | |
| 20260506153519 | 77 | 0.0 | 0.0 | 0.00 | 0.00 | 0.00 | 44 | 1002.0 | |
| 20260506152652 | 77 | 0.0 | 0.0 | 0.00 | 0.00 | 0.00 | 44 | 1002.0 | |
| 20260506151747 | 77 | 0.0 | 0.0 | 0.00 | 0.00 | 0.00 | 44 | 1001.0 | |
| 20260506150907 | 76 | 0.0 | 0.0 | 0.00 | 0.00 | 0.00 | 46 | 1002.0 | |
| 20260506150007 | 76 | 0.0 | 0.0 | 0.00 | 0.00 | 0.00 | 46 | 1002.0 | |
| 20260506145007 | 77 | 0.0 | 0.0 | 0.00 | 0.00 | 0.00 | 44 | 1002.0 | |
| 20260506144017 | 76 | 0.0 | 0.0 | 0.00 | 0.00 | 0.00 | 45 | 1001.0 | |
| 20260506143219 | 78 | 0.0 | 0.0 | 0.00 | 0.00 | 0.00 | 42 | 1001.0 | |
| 20260506142252 | 78 | 0.0 | 0.0 | 0.00 | 0.00 | 0.00 | 42 | 1002.0 | |
| 20260506141327 | 76 | 0.0 | 0.0 | 0.00 | 0.00 | 0.00 | 44 | 1001.0 | |
| 20260506140452 | 77 | 0.0 | 0.0 | 0.00 | 0.00 | 0.00 | 43 | 1002.0 | |
| 20260506135557 | 77 | 0.0 | 0.0 | 0.00 | 0.00 | 0.00 | 43 | 1002.0 | |
| 20260506134632 | 76 | 0.0 | 0.0 | 0.00 | 0.00 | 0.00 | 45 | 1001.0 | |
| 20260506133652 | 76 | 0.0 | 0.0 | 0.00 | 0.00 | 0.00 | 45 | 1001.0 | |
| 20260506132750 | 76 | 0.0 | 0.0 | 0.00 | 0.00 | 0.00 | 45 | 1001.0 | |
| 20260506131952 | 76 | 0.0 | 0.0 | 0.00 | 0.00 | 0.00 | 44 | 1001.0 | |
| 20260506131147 | 78 | 0.0 | 0.0 | 0.00 | 0.00 | 0.00 | 43 | 1001.0 | |
| 20260506130217 | 77 | 0.0 | 0.0 | 0.00 | 0.00 | 0.00 | 44 | 1001.0 | |
| 20260506125237 | 77 | 0.0 | 0.0 | 0.00 | 0.00 | 0.00 | 43 | 1002.0 | |
| 20260506124427 | 76 | 0.0 | 0.0 | 0.00 | 0.00 | 0.00 | 44 | 1002.0 | |
| 20260506123539 | 76 | 0.0 | 0.0 | 0.00 | 0.00 | 0.00 | 46 | 1002.0 | |
| 20260506122722 | 76 | 0.0 | 0.0 | 0.00 | 0.00 | 0.00 | 46 | 1002.0 | |
| 20260506121737 | 74 | 0.0 | 0.0 | 0.00 | 0.00 | 0.00 | 46 | 1002.0 | |
| 20260506120852 | 74 | 0.0 | 0.0 | 0.00 | 0.00 | 0.00 | 46 | 1002.0 | |
| 20260506115857 | 74 | 0.0 | 0.0 | 0.00 | 0.00 | 0.00 | 46 | 1001.0 | |
| 20260506115017 | 74 | 0.0 | 0.0 | 0.00 | 0.00 | 0.00 | 47 | 1002.0 | |
| 20260506114159 | 75 | 0.0 | 0.0 | 0.00 | 0.00 | 0.00 | 45 | 1001.0 | |
| 20260506113201 | 75 | 0.0 | 0.0 | 0.00 | 0.00 | 0.00 | 45 | 1001.0 | |
| 20260506112339 | 75 | 0.0 | 0.0 | 0.00 | 0.00 | 0.00 | 46 | 1001.0 | |
| 20260506111539 | 75 | 0.0 | 0.0 | 0.00 | 0.00 | 0.00 | 46 | 1001.0 | |
| 20260506110702 | 75 | 0.0 | 0.0 | 0.00 | 0.00 | 0.00 | 45 | 1001.0 | |
| 20260506105837 | 75 | 0.0 | 0.0 | 0.00 | 0.00 | 0.00 | 44 | 1001.0 | |
| 20260506105027 | 75 | 0.0 | 0.0 | 0.00 | 0.00 | 0.00 | 45 | 1001.0 | |
| 20260506104119 | 74 | 0.0 | 0.0 | 0.00 | 0.00 | 0.00 | 44 | 1001.0 | |
| 20260506103312 | 75 | 0.0 | 0.0 | 0.00 | 0.00 | 0.00 | 45 | 1001.0 | |
| 20260506102412 | 74 | 0.0 | 0.0 | 0.00 | 0.00 | 0.00 | 44 | 1001.0 | |
| 20260506101507 | 74 | 0.0 | 0.0 | 0.00 | 0.00 | 0.00 | 44 | 1001.0 | |
| 20260506100622 | 74 | 0.0 | 0.0 | 0.00 | 0.00 | 0.00 | 44 | 1001.0 | |
| 20260506095627 | 75 | 0.0 | 0.0 | 0.00 | 0.00 | 0.00 | 46 | 1002.0 | |
| 20260506094824 | 74 | 0.0 | 0.0 | 0.00 | 0.00 | 0.00 | 44 | 1002.0 | |
| 20260506093947 | 74 | 0.0 | 0.0 | 0.00 | 0.00 | 0.00 | 44 | 1002.0 | |
| 20260506092959 | 75 | 0.0 | 0.0 | 0.00 | 0.00 | 0.00 | 44 | 1002.0 | |
| 20260506092037 | 74 | 0.0 | 0.0 | 0.00 | 0.00 | 0.00 | 42 | 1001.0 | |
| 20260506091147 | 74 | 0.0 | 0.0 | 0.00 | 0.00 | 0.00 | 42 | 1001.0 | |
| 20260506090312 | 74 | 0.0 | 0.0 | 0.00 | 0.00 | 0.00 | 42 | 1001.0 | |
| 20260506085437 | 74 | 0.0 | 0.0 | 0.00 | 0.00 | 0.00 | 41 | 1001.0 | |
| 20260506084612 | 74 | 0.0 | 0.0 | 0.00 | 0.00 | 0.00 | 41 | 1001.0 | |
| 20260506083617 | 74 | 0.0 | 0.0 | 0.00 | 0.00 | 0.00 | 41 | 1001.0 | |
| 20260506082722 | 73 | 0.0 | 0.0 | 0.00 | 0.00 | 0.00 | 44 | 1001.0 | |
| 20260506081842 | 74 | 0.0 | 0.0 | 0.00 | 0.00 | 0.00 | 42 | 1001.0 | |
| 20260506080957 | 73 | 0.0 | 0.0 | 0.00 | 0.00 | 0.00 | 44 | 1001.0 | |
| 20260506073227 | 73 | 0.0 | 0.0 | 0.00 | 0.00 | 0.00 | 45 | 1002.0 | |
| 20260506072347 | 71 | 0.0 | 0.0 | 0.00 | 0.00 | 0.00 | 48 | 1002.0 | |
| 20260506071442 | 69 | 0.0 | 0.0 | 0.00 | 0.00 | 0.00 | 51 | 1002.0 | |
| 20260506070632 | 69 | 0.0 | 0.0 | 0.00 | 0.00 | 0.00 | 51 | 1002.0 | |
| 20260506062157 | 64 | 0.0 | 0.0 | 0.00 | 0.00 | 0.00 | 62 | 1002.0 | |
| 20260506061247 | 64 | 0.0 | 0.0 | 0.00 | 0.00 | 0.00 | 63 | 1002.0 | |
| 20260506060427 | 62 | 0.0 | 0.0 | 0.00 | 0.00 | 0.00 | 67 | 1002.0 | |
| 20260506051017 | 57 | 0.0 | 0.0 | 0.00 | 0.00 | 0.00 | 80 | 1002.0 | |
| 20260506050132 | 56 | 0.0 | 0.0 | 0.00 | 0.00 | 0.00 | 83 | 1002.0 | |
| 20260506044403 | 55 | 0.0 | 0.0 | 0.00 | 0.00 | 0.00 | 84 | 1002.0 | |
| 20260506043552 | 55 | 0.0 | 0.0 | 0.00 | 0.00 | 0.00 | 85 | 1002.0 | |
| 20260506042642 | 54 | 0.0 | 0.0 | 0.00 | 0.00 | 0.00 | 86 | 1002.0 | |
| 20260506041757 | 52 | 0.0 | 0.0 | 0.00 | 0.00 | 0.00 | 89 | 1002.0 | |
| 20260506040802 | 52 | 0.0 | 0.0 | 0.00 | 0.00 | 0.00 | 89 | 1002.0 | |
| 20260506035902 | 52 | 0.0 | 0.0 | 0.00 | 0.00 | 0.00 | 89 | 1002.0 | |
| 20260506035058 | 52 | 0.0 | 0.0 | 0.00 | 0.00 | 0.00 | 88 | 1002.0 | |
| 20260506034147 | 51 | 0.0 | 0.0 | 0.00 | 0.00 | 0.00 | 86 | 1002.0 | |
| 20260506033302 | 51 | 0.0 | 0.0 | 0.00 | 0.00 | 0.00 | 85 | 1002.0 | |
| 20260506032408 | 51 | 0.0 | 0.0 | 0.00 | 0.00 | 0.00 | 85 | 1002.0 | |
| 20260506031517 | 51 | 0.0 | 0.0 | 0.00 | 0.00 | 0.00 | 85 | 1002.0 | |
| 20260506030642 | 51 | 0.0 | 0.0 | 0.00 | 0.00 | 0.00 | 84 | 1002.0 | |
| 20260506025827 | 51 | 0.0 | 0.0 | 0.00 | 0.00 | 0.00 | 84 | 1002.0 | |
| 20260506025002 | 51 | 0.0 | 0.0 | 0.00 | 0.00 | 0.00 | 84 | 1002.0 | |
| 20260506024107 | 51 | 0.0 | 0.0 | 0.00 | 0.00 | 0.00 | 84 | 1003.0 | |
| 20260506023217 | 51 | 0.0 | 0.0 | 0.00 | 0.00 | 0.00 | 84 | 1003.0 | |
| 20260506022357 | 51 | 0.0 | 0.0 | 0.00 | 0.00 | 0.00 | 84 | 1003.0 | |
| 20260506021518 | 51 | 0.0 | 0.0 | 0.00 | 0.00 | 0.00 | 83 | 1003.0 | |
| 20260506020527 | 51 | 0.0 | 0.0 | 0.00 | 0.00 | 0.00 | 83 | 1003.0 | |
| 20260506015622 | 51 | 0.0 | 0.0 | 0.00 | 0.00 | 0.00 | 83 | 1003.0 | |
| 20260506014657 | 52 | 0.0 | 0.0 | 0.00 | 0.00 | 0.00 | 82 | 1003.0 | |
| 20260506013857 | 52 | 0.0 | 0.0 | 0.00 | 0.00 | 0.00 | 83 | 1003.0 | |
| 20260506012951 | 53 | 0.0 | 0.0 | 0.00 | 0.00 | 0.00 | 82 | 1003.0 | |
| 20260506012052 | 53 | 0.0 | 0.0 | 0.00 | 0.00 | 0.00 | 82 | 1003.0 | |
| 20260506011137 | 53 | 0.0 | 0.0 | 0.00 | 0.00 | 0.00 | 84 | 1003.0 | |
| 20260506010247 | 53 | 0.0 | 0.0 | 0.00 | 0.00 | 0.00 | 84 | 1003.0 | |
| 20260506005307 | 53 | 0.0 | 0.0 | 0.00 | 0.00 | 0.00 | 85 | 1003.0 | |
| 20260506004332 | 53 | 0.0 | 0.0 | 0.00 | 0.00 | 0.00 | 88 | 1003.0 | |
| 20260506003507 | 54 | 0.0 | 0.0 | 0.00 | 0.00 | 0.00 | 87 | 1003.0 | |
| 20260506002617 | 55 | 0.0 | 0.0 | 0.00 | 0.00 | 0.00 | 85 | 1003.0 | |
| 20260506001757 | 55 | 0.0 | 0.0 | 0.00 | 0.00 | 0.00 | 86 | 1003.0 | |
| 20260506000942 | 55 | 0.0 | 0.0 | 0.00 | 0.00 | 0.00 | 85 | 1003.0 | |
| 20260506000052 | 56 | 0.0 | 0.0 | 0.00 | 0.00 | 0.00 | 84 | 1003.0 | |
| 20260505235249 | 56 | 0.0 | 0.0 | 0.00 | 0.00 | 0.00 | 84 | 1003.0 | |
| 20260505234418 | 56 | 0.0 | 0.0 | 0.00 | 0.00 | 0.00 | 84 | 1003.0 | |
| 20260505233532 | 57 | 0.0 | 0.0 | 0.00 | 0.00 | 0.00 | 83 | 1003.0 | |
| 20260505232547 | 57 | 0.0 | 0.0 | 0.00 | 0.00 | 0.00 | 83 | 1003.0 | |
| 20260505231707 | 58 | 0.0 | 0.0 | 0.00 | 0.00 | 0.00 | 81 | 1002.0 | |
| 20260505230858 | 58 | 0.0 | 0.0 | 0.00 | 0.00 | 0.00 | 80 | 1002.0 | |
| 20260505230037 | 59 | 0.0 | 0.0 | 0.00 | 0.00 | 0.00 | 80 | 1002.0 | |
| 20260505225112 | 59 | 0.0 | 0.0 | 0.00 | 0.00 | 0.00 | 79 | 1002.0 | |
| 20260505224114 | 60 | 0.0 | 0.0 | 0.00 | 0.00 | 0.00 | 78 | 1002.0 | |
| 20260505223147 | 60 | 0.0 | 0.0 | 0.00 | 0.00 | 0.00 | 77 | 1002.0 | |
| 20260505222159 | 60 | 0.0 | 0.0 | 0.00 | 0.00 | 0.00 | 77 | 1002.0 | |
| 20260505221222 | 61 | 0.0 | 0.0 | 0.00 | 0.00 | 0.00 | 76 | 1002.0 | |
| 20260505220227 | 61 | 0.0 | 0.0 | 0.00 | 0.00 | 0.00 | 76 | 1002.0 | |
| 20260505215242 | 62 | 0.0 | 0.0 | 0.00 | 0.00 | 0.00 | 74 | 1003.0 | |
| 20260505214252 | 63 | 0.0 | 0.0 | 0.00 | 0.00 | 0.00 | 71 | 1002.0 | |
| 20260505213252 | 64 | 0.0 | 0.0 | 0.00 | 0.00 | 0.00 | 70 | 1002.0 | |
| 20260505212342 | 64 | 0.0 | 0.0 | 0.00 | 0.00 | 0.00 | 70 | 1002.0 | |
| 20260505211407 | 65 | 0.0 | 0.0 | 0.00 | 0.00 | 0.00 | 69 | 1002.0 | |
| 20260505210552 | 65 | 0.0 | 0.0 | 0.00 | 0.00 | 0.00 | 68 | 1002.0 | |
| 20260505205652 | 65 | 0.0 | 0.0 | 0.00 | 0.00 | 0.00 | 67 | 1002.0 | |
| 20260505204716 | 66 | 0.0 | 0.0 | 0.00 | 0.00 | 0.00 | 65 | 1002.0 | |
| 20260505203852 | 65 | 0.0 | 0.0 | 0.00 | 0.00 | 0.00 | 65 | 1002.0 | |
| 20260505202936 | 65 | 0.0 | 0.0 | 0.00 | 0.00 | 0.00 | 65 | 1002.0 | |
| 20260505202032 | 65 | 0.0 | 0.0 | 0.00 | 0.00 | 0.00 | 65 | 1002.0 | |
| 20260505201107 | 65 | 0.0 | 0.0 | 0.00 | 0.00 | 0.00 | 62 | 1002.0 | |
| 20260505200147 | 66 | 0.0 | 0.0 | 0.00 | 0.00 | 0.00 | 57 | 1002.0 | |
| 20260505195152 | 68 | 0.0 | 0.0 | 0.00 | 0.00 | 0.00 | 51 | 1002.0 | |
| 20260505194252 | 68 | 0.0 | 0.0 | 0.00 | 0.00 | 0.00 | 51 | 1002.0 | |
| 20260505193312 | 68 | 0.0 | 0.0 | 0.00 | 0.00 | 0.00 | 41 | 1002.0 | |
| 20260505192452 | 68 | 0.0 | 0.0 | 0.00 | 0.00 | 0.00 | 39 | 1001.0 |